Time;durP1;ratioP1;P1;durP2;ratioP2;P2;SDS_P1;SDS_P2;PMS_P1;PMS_P2;Temp;Humidity;BMP_temperature;BMP_pressure;BME280_temperature;BME280_humidity;BME280_pressure;Samples;Min_cycle;Max_cycle;Signal;HPM_P1;HPM_P2
2020/12/20 00:00:55;;;;;;;15.82;8.75;;;;;;;;;;5114973;28;20028;-76
2020/12/20 00:03:21;;;;;;;14.57;8.10;;;;;;;;;;5114943;28;20489;-78
2020/12/20 00:05:47;;;;;;;15.63;7.60;;;;;;;;;;5115002;28;20077;-79
2020/12/20 00:08:13;;;;;;;13.77;8.73;;;;;;;;;;5115058;28;20028;-78
2020/12/20 00:10:39;;;;;;;16.27;8.90;;;;;;;;;;5115016;28;20054;-82
2020/12/20 00:13:05;;;;;;;13.88;8.23;;;;;;;;;;5096581;28;20065;-77
2020/12/20 00:15:31;;;;;;;13.55;8.30;;;;;;;;;;5114721;28;20026;-76
2020/12/20 00:17:57;;;;;;;14.00;8.65;;;;;;;;;;5096362;28;20086;-76
2020/12/20 00:20:23;;;;;;;14.57;9.95;;;;;;;;;;5096240;28;20023;-81
2020/12/20 00:22:49;;;;;;;13.68;8.93;;;;;;;;;;5096386;28;20027;-81
2020/12/20 00:25:16;;;;;;;14.48;9.23;;;;;;;;;;5096409;28;20035;-82
2020/12/20 00:27:42;;;;;;;14.10;8.65;;;;;;;;;;5096261;28;20031;-75
2020/12/20 00:30:09;;;;;;;12.57;8.40;;;;;;;;;;5114543;28;20020;-74
2020/12/20 00:32:35;;;;;;;13.40;8.95;;;;;;;;;;5114455;28;20019;-78
2020/12/20 00:35:01;;;;;;;13.35;8.95;;;;;;;;;;5096232;28;20023;-79
2020/12/20 00:37:27;;;;;;;13.45;9.07;;;;;;;;;;5108919;28;20467;-76
2020/12/20 00:39:54;;;;;;;12.80;8.63;;;;;;;;;;5093998;28;20538;-77
2020/12/20 00:42:21;;;;;;;16.00;9.35;;;;;;;;;;5075502;28;20055;-80
2020/12/20 00:44:47;;;;;;;15.07;8.82;;;;;;;;;;5075397;28;20012;-83
2020/12/20 00:47:13;;;;;;;21.35;9.02;;;;;;;;;;5093446;28;20040;-79
2020/12/20 00:49:39;;;;;;;15.20;10.20;;;;;;;;;;5093576;28;20020;-80
2020/12/20 00:52:06;;;;;;;13.65;9.45;;;;;;;;;;5093874;28;20024;-81
2020/12/20 00:54:32;;;;;;;14.95;10.57;;;;;;;;;;5076089;28;20419;-81
2020/12/20 00:56:58;;;;;;;15.70;9.80;;;;;;;;;;5093715;28;20035;-79
2020/12/20 00:59:24;;;;;;;17.40;9.50;;;;;;;;;;5093590;28;20016;-84
2020/12/20 01:01:51;;;;;;;18.08;10.25;;;;;;;;;;5093361;28;20074;-78
2020/12/20 01:04:17;;;;;;;14.80;9.45;;;;;;;;;;5093468;28;20020;-77
2020/12/20 01:06:43;;;;;;;18.83;10.45;;;;;;;;;;5075253;28;20164;-78
2020/12/20 01:09:09;;;;;;;17.17;9.65;;;;;;;;;;5093515;28;20027;-80
2020/12/20 01:11:35;;;;;;;14.93;9.93;;;;;;;;;;5093560;28;20024;-76
2020/12/20 01:14:03;;;;;;;14.27;10.18;;;;;;;;;;5093369;28;20051;-77
2020/12/20 01:16:30;;;;;;;14.82;8.98;;;;;;;;;;5074762;28;20024;-83
2020/12/20 01:18:56;;;;;;;14.10;8.40;;;;;;;;;;5093401;28;20039;-80
2020/12/20 01:21:23;;;;;;;16.63;10.13;;;;;;;;;;5093184;28;20024;-80
2020/12/20 01:23:49;;;;;;;14.95;9.32;;;;;;;;;;5074924;28;20424;-81
2020/12/20 01:26:15;;;;;;;13.73;9.32;;;;;;;;;;5074982;28;20020;-77
2020/12/20 01:28:41;;;;;;;15.20;8.82;;;;;;;;;;5074734;28;20046;-77
2020/12/20 01:31:08;;;;;;;13.10;8.82;;;;;;;;;;5074677;28;20043;-78
2020/12/20 01:33:35;;;;;;;12.63;8.60;;;;;;;;;;5074882;28;20074;-83
2020/12/20 01:36:11;;;;;;;14.65;8.95;;;;;;;;;;5093173;28;20032;-83
2020/12/20 01:38:37;;;;;;;14.57;9.50;;;;;;;;;;5074726;28;20032;-79
2020/12/20 01:41:04;;;;;;;15.20;9.13;;;;;;;;;;5093030;28;20028;-76
2020/12/20 01:43:59;;;;;;;13.27;8.75;;;;;;;;;;5074808;28;20386;-78
2020/12/20 01:46:25;;;;;;;17.15;9.20;;;;;;;;;;5070098;28;20510;-79
2020/12/20 01:48:52;;;;;;;12.25;8.52;;;;;;;;;;5092917;28;20425;-78
2020/12/20 01:51:18;;;;;;;16.88;9.40;;;;;;;;;;5074810;28;20024;-75
2020/12/20 01:53:46;;;;;;;15.55;8.75;;;;;;;;;;5092905;28;20047;-75
2020/12/20 01:56:13;;;;;;;13.00;8.85;;;;;;;;;;5092812;28;20020;-75
2020/12/20 01:58:39;;;;;;;14.77;8.88;;;;;;;;;;5074729;28;20043;-76
2020/12/20 02:01:06;;;;;;;13.95;9.40;;;;;;;;;;5074782;28;20027;-75
2020/12/20 02:03:32;;;;;;;14.25;8.82;;;;;;;;;;5074677;28;20024;-75
2020/12/20 02:05:59;;;;;;;11.82;8.45;;;;;;;;;;5092734;28;20035;-75
2020/12/20 02:08:28;;;;;;;13.45;9.25;;;;;;;;;;5074822;28;20502;-75
2020/12/20 02:11:23;;;;;;;13.35;8.88;;;;;;;;;;5091156;28;20371;-74
2020/12/20 02:13:50;;;;;;;14.43;9.13;;;;;;;;;;5078130;28;20043;-75
2020/12/20 02:16:17;;;;;;;20.33;9.55;;;;;;;;;;5073108;28;20498;-77
2020/12/20 02:18:43;;;;;;;13.02;9.00;;;;;;;;;;5091236;28;20148;-76
2020/12/20 02:21:23;;;;;;;13.27;9.07;;;;;;;;;;5091103;28;20044;-75
2020/12/20 02:23:50;;;;;;;12.98;8.38;;;;;;;;;;5090991;28;20027;-77
2020/12/20 02:26:17;;;;;;;12.00;8.55;;;;;;;;;;5072869;28;20498;-76
2020/12/20 02:28:43;;;;;;;14.82;9.00;;;;;;;;;;5074220;28;20460;-76
2020/12/20 02:31:09;;;;;;;15.98;9.48;;;;;;;;;;5076970;28;20387;-76
2020/12/20 02:33:36;;;;;;;12.75;8.55;;;;;;;;;;5094934;28;20035;-78
2020/12/20 02:36:03;;;;;;;12.98;8.80;;;;;;;;;;5094936;28;20467;-75
2020/12/20 02:38:29;;;;;;;15.50;9.27;;;;;;;;;;5076649;28;20114;-77
2020/12/20 02:40:56;;;;;;;12.23;8.75;;;;;;;;;;5076731;28;20020;-76
2020/12/20 02:43:22;;;;;;;13.55;9.48;;;;;;;;;;5095206;28;20028;-76
2020/12/20 02:45:48;;;;;;;13.15;9.25;;;;;;;;;;5076109;28;20076;-76
2020/12/20 02:48:14;;;;;;;18.17;9.95;;;;;;;;;;5076248;28;20031;-78
2020/12/20 02:50:40;;;;;;;16.48;9.43;;;;;;;;;;5094687;28;20020;-81
2020/12/20 02:53:06;;;;;;;14.02;9.63;;;;;;;;;;5076373;28;20026;-82
2020/12/20 02:55:32;;;;;;;17.02;10.50;;;;;;;;;;5094724;28;20020;-79
2020/12/20 02:57:58;;;;;;;19.45;9.55;;;;;;;;;;5094630;28;20051;-78
2020/12/20 03:00:25;;;;;;;15.38;9.60;;;;;;;;;;5076301;28;20020;-76
2020/12/20 03:02:51;;;;;;;14.40;9.38;;;;;;;;;;5076296;28;20020;-75
2020/12/20 03:05:19;;;;;;;15.60;10.27;;;;;;;;;;5094462;28;20107;-76
2020/12/20 03:07:48;;;;;;;20.40;9.95;;;;;;;;;;5094468;28;20048;-75
2020/12/20 03:10:17;;;;;;;15.65;10.80;;;;;;;;;;5076148;28;20020;-76
2020/12/20 03:12:44;;;;;;;16.58;10.10;;;;;;;;;;5076272;28;20059;-76
2020/12/20 03:15:10;;;;;;;15.50;10.52;;;;;;;;;;5094315;28;20016;-75
2020/12/20 03:17:36;;;;;;;15.93;11.15;;;;;;;;;;5075977;28;20020;-75
2020/12/20 03:20:03;;;;;;;15.88;10.07;;;;;;;;;;5075802;28;20471;-76
2020/12/20 03:22:29;;;;;;;17.45;10.43;;;;;;;;;;5094100;28;20628;-75
2020/12/20 03:24:55;;;;;;;15.80;9.65;;;;;;;;;;5076007;28;20542;-76
2020/12/20 03:27:21;;;;;;;15.75;10.65;;;;;;;;;;5075813;28;20433;-75
2020/12/20 03:29:47;;;;;;;15.00;9.98;;;;;;;;;;5076011;28;20020;-75
2020/12/20 03:32:13;;;;;;;14.40;9.98;;;;;;;;;;5075697;28;20078;-75
2020/12/20 03:34:40;;;;;;;16.27;10.05;;;;;;;;;;5094084;28;20012;-76
2020/12/20 03:37:06;;;;;;;15.65;10.32;;;;;;;;;;5096246;28;20374;-75
2020/12/20 03:39:32;;;;;;;14.82;9.88;;;;;;;;;;5095598;28;20020;-75
2020/12/20 03:41:58;;;;;;;15.55;10.18;;;;;;;;;;5114188;28;20023;-75
2020/12/20 03:44:24;;;;;;;14.40;9.82;;;;;;;;;;5114079;28;20034;-76
2020/12/20 03:46:50;;;;;;;15.68;10.35;;;;;;;;;;5113940;28;20048;-75
2020/12/20 03:49:16;;;;;;;17.23;9.95;;;;;;;;;;5114221;28;20031;-75
2020/12/20 03:51:42;;;;;;;13.43;9.75;;;;;;;;;;5095830;28;20022;-75
2020/12/20 03:54:08;;;;;;;15.82;9.95;;;;;;;;;;5113751;28;20374;-75
2020/12/20 03:56:34;;;;;;;15.98;10.48;;;;;;;;;;5113864;28;20043;-76
2020/12/20 03:59:00;;;;;;;14.13;9.30;;;;;;;;;;5113834;28;20077;-75
2020/12/20 04:01:27;;;;;;;14.70;10.18;;;;;;;;;;5095637;28;20028;-75
2020/12/20 04:03:53;;;;;;;13.93;9.57;;;;;;;;;;5113943;28;20020;-76
2020/12/20 04:06:19;;;;;;;14.10;9.82;;;;;;;;;;5113671;28;20044;-75
2020/12/20 04:08:45;;;;;;;15.32;9.48;;;;;;;;;;5095392;28;20020;-75
2020/12/20 04:11:11;;;;;;;15.38;9.88;;;;;;;;;;5113671;28;20084;-75
2020/12/20 04:13:37;;;;;;;14.23;9.60;;;;;;;;;;5113528;28;20123;-76
2020/12/20 04:16:06;;;;;;;13.82;9.50;;;;;;;;;;5095259;28;20020;-76
2020/12/20 04:18:33;;;;;;;15.35;9.82;;;;;;;;;;5095071;28;20027;-76
2020/12/20 04:20:59;;;;;;;13.10;9.25;;;;;;;;;;5095087;28;20433;-75
2020/12/20 04:23:25;;;;;;;15.00;9.82;;;;;;;;;;5094756;28;20034;-76
2020/12/20 04:25:51;;;;;;;14.50;9.88;;;;;;;;;;5112882;28;20427;-76
2020/12/20 04:28:17;;;;;;;16.15;9.73;;;;;;;;;;5094506;28;20028;-76
2020/12/20 04:30:43;;;;;;;14.85;10.32;;;;;;;;;;5112968;28;20020;-76
2020/12/20 04:33:09;;;;;;;14.15;9.55;;;;;;;;;;5112993;28;20062;-76
2020/12/20 04:35:35;;;;;;;12.88;9.05;;;;;;;;;;5094830;28;20024;-76
2020/12/20 04:38:01;;;;;;;16.10;10.30;;;;;;;;;;5102423;28;20449;-76
2020/12/20 04:40:27;;;;;;;15.20;10.02;;;;;;;;;;5074314;28;20118;-76
2020/12/20 04:43:04;;;;;;;16.02;10.60;;;;;;;;;;5074112;28;20028;-76
2020/12/20 04:45:31;;;;;;;15.23;10.25;;;;;;;;;;5074252;28;20024;-75
2020/12/20 04:47:58;;;;;;;15.15;10.20;;;;;;;;;;5074074;28;20058;-75
2020/12/20 04:50:24;;;;;;;12.95;9.52;;;;;;;;;;5108644;27;20034;-77
2020/12/20 04:52:53;;;;;;;14.85;9.82;;;;;;;;;;5132785;27;20061;-77
2020/12/20 04:55:21;;;;;;;14.68;9.95;;;;;;;;;;5133541;27;20026;-76
2020/12/20 04:57:47;;;;;;;13.88;9.93;;;;;;;;;;5133453;27;20021;-78
2020/12/20 05:00:13;;;;;;;15.02;10.15;;;;;;;;;;5133443;27;20043;-77
2020/12/20 05:02:40;;;;;;;15.63;9.90;;;;;;;;;;5133509;27;20049;-76
2020/12/20 05:05:06;;;;;;;13.07;9.00;;;;;;;;;;5114877;27;20074;-76
2020/12/20 05:07:33;;;;;;;14.55;9.93;;;;;;;;;;5133289;27;20031;-77
2020/12/20 05:09:59;;;;;;;14.73;10.45;;;;;;;;;;5133240;27;20019;-76
2020/12/20 05:12:25;;;;;;;14.38;9.60;;;;;;;;;;5114743;27;20023;-76
2020/12/20 05:14:51;;;;;;;15.02;10.10;;;;;;;;;;5114780;27;20359;-76
2020/12/20 05:17:18;;;;;;;16.30;10.00;;;;;;;;;;5132971;27;20034;-76
2020/12/20 05:19:44;;;;;;;14.75;10.10;;;;;;;;;;5114516;27;20023;-77
2020/12/20 05:22:16;;;;;;;14.90;9.80;;;;;;;;;;5114351;27;20409;-76
2020/12/20 05:24:45;;;;;;;16.02;10.88;;;;;;;;;;5132612;27;20027;-77
2020/12/20 05:27:23;;;;;;;13.75;9.60;;;;;;;;;;5132633;27;20496;-76
2020/12/20 05:29:52;;;;;;;15.40;10.73;;;;;;;;;;5132897;27;20027;-77
2020/12/20 05:32:28;;;;;;;16.58;10.88;;;;;;;;;;5132721;27;20127;-76
2020/12/20 05:34:58;;;;;;;15.65;10.25;;;;;;;;;;5132635;27;20019;-76
2020/12/20 05:37:27;;;;;;;16.20;10.52;;;;;;;;;;5132857;27;20086;-75
2020/12/20 05:39:54;;;;;;;14.75;9.50;;;;;;;;;;5114635;28;20483;-75
2020/12/20 05:42:22;;;;;;;17.98;11.10;;;;;;;;;;5114319;28;20126;-76
2020/12/20 05:44:48;;;;;;;17.15;10.50;;;;;;;;;;5114220;28;20023;-78
2020/12/20 05:47:14;;;;;;;15.73;10.85;;;;;;;;;;5132546;27;20055;-75
2020/12/20 05:49:40;;;;;;;15.00;10.27;;;;;;;;;;5132233;27;20019;-76
2020/12/20 05:52:06;;;;;;;16.17;10.40;;;;;;;;;;5113855;28;20110;-77
2020/12/20 05:54:33;;;;;;;17.02;10.85;;;;;;;;;;5113801;28;20059;-76
2020/12/20 05:57:09;;;;;;;16.60;10.43;;;;;;;;;;5132267;28;20044;-76
2020/12/20 05:59:35;;;;;;;15.23;10.70;;;;;;;;;;5132526;28;20103;-76
2020/12/20 06:02:03;;;;;;;15.85;10.85;;;;;;;;;;5132386;27;20045;-76
2020/12/20 06:04:30;;;;;;;15.30;10.52;;;;;;;;;;5136814;27;20031;-76
2020/12/20 06:06:56;;;;;;;15.02;11.07;;;;;;;;;;5117989;27;20514;-76
2020/12/20 06:09:24;;;;;;;16.30;11.10;;;;;;;;;;5118095;27;20035;-76
2020/12/20 06:11:52;;;;;;;16.27;11.00;;;;;;;;;;5136540;27;20034;-79
2020/12/20 06:14:19;;;;;;;16.98;11.05;;;;;;;;;;5136383;27;20035;-76
2020/12/20 06:16:47;;;;;;;14.68;10.00;;;;;;;;;;5118050;27;20023;-77
2020/12/20 06:19:22;;;;;;;14.02;10.10;;;;;;;;;;5136527;27;20015;-76
2020/12/20 06:21:59;;;;;;;16.45;10.80;;;;;;;;;;5136521;27;20016;-79
2020/12/20 06:24:27;;;;;;;15.07;10.52;;;;;;;;;;5136312;27;20019;-75
2020/12/20 06:26:57;;;;;;;15.90;10.95;;;;;;;;;;5136306;27;20035;-76
2020/12/20 06:29:24;;;;;;;16.00;10.65;;;;;;;;;;5136211;27;20019;-74
2020/12/20 06:31:51;;;;;;;15.13;10.60;;;;;;;;;;5136236;27;20030;-75
2020/12/20 06:34:17;;;;;;;15.85;10.40;;;;;;;;;;5117501;27;20026;-78
2020/12/20 06:36:45;;;;;;;16.45;10.80;;;;;;;;;;5136016;27;20027;-76
2020/12/20 06:39:16;;;;;;;16.50;10.82;;;;;;;;;;5117576;27;20098;-76
2020/12/20 06:41:42;;;;;;;15.88;10.85;;;;;;;;;;5117614;27;20037;-78
2020/12/20 06:44:12;;;;;;;15.55;10.82;;;;;;;;;;5135932;27;20043;-77
2020/12/20 06:46:38;;;;;;;16.08;10.73;;;;;;;;;;5117155;27;20073;-77
2020/12/20 06:49:23;;;;;;;15.50;11.02;;;;;;;;;;5117244;27;20509;-77
2020/12/20 06:51:49;;;;;;;15.88;10.43;;;;;;;;;;5114720;27;20102;-76
2020/12/20 06:54:24;;;;;;;17.63;11.05;;;;;;;;;;5115066;28;21220;-77
2020/12/20 06:57:09;;;;;;;15.90;11.32;;;;;;;;;;5096815;28;20058;-76
2020/12/20 06:59:44;;;;;;;15.10;10.82;;;;;;;;;;5096727;28;20020;-76
2020/12/20 07:02:10;;;;;;;16.27;11.43;;;;;;;;;;5115179;28;20475;-76
2020/12/20 07:04:42;;;;;;;16.48;11.63;;;;;;;;;;5114823;28;20481;-77
2020/12/20 07:07:11;;;;;;;15.82;11.55;;;;;;;;;;5114863;28;20046;-75
2020/12/20 07:09:37;;;;;;;14.73;10.45;;;;;;;;;;5115116;28;20247;-76
2020/12/20 07:12:05;;;;;;;15.52;10.95;;;;;;;;;;5114925;28;20098;-76
2020/12/20 07:14:35;;;;;;;15.27;10.88;;;;;;;;;;5114023;28;20027;-76
2020/12/20 07:17:01;;;;;;;16.67;10.95;;;;;;;;;;5096422;28;20470;-76
2020/12/20 07:19:27;;;;;;;15.27;10.65;;;;;;;;;;5096370;28;20498;-77
2020/12/20 07:21:53;;;;;;;15.35;10.75;;;;;;;;;;5114552;28;20516;-77
2020/12/20 07:24:24;;;;;;;15.70;10.70;;;;;;;;;;5096307;28;20058;-75
2020/12/20 07:26:53;;;;;;;15.82;10.90;;;;;;;;;;5114608;28;20438;-76
2020/12/20 07:29:19;;;;;;;16.02;10.55;;;;;;;;;;5114581;28;20016;-76
2020/12/20 07:31:46;;;;;;;14.40;10.23;;;;;;;;;;5096089;28;20039;-77
2020/12/20 07:34:12;;;;;;;16.50;10.60;;;;;;;;;;5114409;28;20027;-77
2020/12/20 07:36:39;;;;;;;15.55;10.90;;;;;;;;;;5114380;28;20034;-76
2020/12/20 07:39:06;;;;;;;14.57;10.32;;;;;;;;;;5114225;28;20503;-76
2020/12/20 07:41:32;;;;;;;14.38;10.00;;;;;;;;;;5114243;28;20019;-80
2020/12/20 07:44:00;;;;;;;13.40;9.30;;;;;;;;;;5114179;28;20104;-78
2020/12/20 07:46:26;;;;;;;13.57;9.68;;;;;;;;;;5113914;28;20498;-78
2020/12/20 07:48:52;;;;;;;14.63;10.40;;;;;;;;;;5095810;28;20483;-77
2020/12/20 07:51:18;;;;;;;13.85;9.40;;;;;;;;;;5112725;28;20042;-77
2020/12/20 07:53:45;;;;;;;14.32;10.02;;;;;;;;;;5095904;28;20027;-76
2020/12/20 07:56:19;;;;;;;14.43;9.50;;;;;;;;;;5095790;28;20069;-79
2020/12/20 07:58:45;;;;;;;15.55;9.38;;;;;;;;;;5096045;28;20370;-76
2020/12/20 08:01:11;;;;;;;14.93;9.80;;;;;;;;;;5095690;28;20073;-80
2020/12/20 08:03:38;;;;;;;62.17;10.93;;;;;;;;;;5114060;28;20024;-68
2020/12/20 08:06:13;;;;;;;20.20;10.18;;;;;;;;;;5113847;28;20062;-69
2020/12/20 08:08:40;;;;;;;21.27;10.63;;;;;;;;;;5114278;28;20370;-71
2020/12/20 08:11:29;;;;;;;17.13;8.90;;;;;;;;;;5113737;28;20020;-69
2020/12/20 08:13:56;;;;;;;17.80;10.88;;;;;;;;;;5113885;28;20073;-74
2020/12/20 08:16:26;;;;;;;17.50;10.10;;;;;;;;;;5113753;28;20024;-69
2020/12/20 08:18:56;;;;;;;18.73;10.02;;;;;;;;;;5113845;28;20023;-71
2020/12/20 08:21:42;;;;;;;17.38;9.70;;;;;;;;;;5117490;28;20072;-68
2020/12/20 08:24:09;;;;;;;15.27;10.00;;;;;;;;;;5116746;28;20028;-68
2020/12/20 08:26:35;;;;;;;12.32;8.25;;;;;;;;;;5113942;28;20074;-74
2020/12/20 08:29:01;;;;;;;14.30;10.02;;;;;;;;;;5096791;28;20015;-87
2020/12/20 08:31:31;;;;;;;17.15;9.35;;;;;;;;;;5114768;28;20034;-95
2020/12/20 08:33:58;;;;;;;14.73;9.80;;;;;;;;;;5096636;28;20061;-72
2020/12/20 08:36:24;;;;;;;14.95;9.98;;;;;;;;;;5114574;28;20024;-68
2020/12/20 08:38:50;;;;;;;15.00;9.80;;;;;;;;;;5096326;28;20031;-69
2020/12/20 08:41:24;;;;;;;15.32;9.68;;;;;;;;;;5095935;28;20015;-71
2020/12/20 08:44:01;;;;;;;14.63;9.73;;;;;;;;;;5113998;28;20024;-73
2020/12/20 08:46:28;;;;;;;14.82;9.82;;;;;;;;;;5113989;28;20536;-68
2020/12/20 08:48:54;;;;;;;14.10;9.38;;;;;;;;;;5114071;28;20102;-72
2020/12/20 08:51:23;;;;;;;73.68;10.65;;;;;;;;;;5094645;28;20023;-66
2020/12/20 08:53:49;;;;;;;24.65;9.45;;;;;;;;;;5112398;28;20055;-66
2020/12/20 08:56:15;;;;;;;14.85;9.98;;;;;;;;;;5112368;28;20016;-67
2020/12/20 08:58:48;;;;;;;22.15;10.05;;;;;;;;;;5112778;28;20026;-65
2020/12/20 09:01:14;;;;;;;26.95;10.95;;;;;;;;;;5094479;28;20374;-66
2020/12/20 09:03:40;;;;;;;15.23;9.23;;;;;;;;;;5112710;28;20020;-67
2020/12/20 09:06:13;;;;;;;15.55;9.75;;;;;;;;;;5094349;28;20383;-71
2020/12/20 09:08:39;;;;;;;17.45;9.93;;;;;;;;;;5112690;28;20024;-69
2020/12/20 09:11:05;;;;;;;19.20;10.55;;;;;;;;;;5112605;28;20020;-70
2020/12/20 09:13:31;;;;;;;17.95;10.27;;;;;;;;;;5094108;28;20027;-71
2020/12/20 09:15:58;;;;;;;19.20;10.27;;;;;;;;;;5112339;28;20019;-69
2020/12/20 09:18:29;;;;;;;26.88;10.13;;;;;;;;;;5112320;28;20026;-71
2020/12/20 09:20:55;;;;;;;15.63;9.65;;;;;;;;;;5112539;28;20023;-74
2020/12/20 09:23:22;;;;;;;16.65;10.23;;;;;;;;;;5112314;28;20027;-70
2020/12/20 09:25:49;;;;;;;18.50;9.85;;;;;;;;;;5112296;28;20020;-67
2020/12/20 09:28:22;;;;;;;15.82;10.10;;;;;;;;;;5094038;28;20040;-67
2020/12/20 09:30:50;;;;;;;20.02;10.10;;;;;;;;;;5112227;28;20515;-75
2020/12/20 09:33:22;;;;;;;26.33;11.07;;;;;;;;;;5112129;28;20023;-68
2020/12/20 09:35:54;;;;;;;20.80;10.63;;;;;;;;;;5112205;28;20019;-68
2020/12/20 09:38:21;;;;;;;14.32;10.00;;;;;;;;;;5111806;28;20023;-71
2020/12/20 09:40:47;;;;;;;15.93;9.60;;;;;;;;;;5093657;28;20027;-68
2020/12/20 09:43:20;;;;;;;15.15;9.60;;;;;;;;;;5093745;28;20051;-67
2020/12/20 09:45:46;;;;;;;;;;;;;;;;;;5112409;28;20038;-67
2020/12/20 09:48:12;;;;;;;43.63;10.75;;;;;;;;;;5111963;27;19926;-76
2020/12/20 09:50:38;;;;;;;13.77;9.57;;;;;;;;;;5110359;28;20030;-70
2020/12/20 09:53:05;;;;;;;17.92;11.15;;;;;;;;;;5093681;28;20047;-74
2020/12/20 09:55:31;;;;;;;16.35;10.75;;;;;;;;;;5093692;28;20027;-70
2020/12/20 09:57:58;;;;;;;14.55;9.80;;;;;;;;;;5093682;28;20034;-71
2020/12/20 10:00:24;;;;;;;15.95;11.32;;;;;;;;;;5112001;28;20107;-71
2020/12/20 10:02:50;;;;;;;15.75;10.10;;;;;;;;;;5111759;28;20027;-70
2020/12/20 10:05:16;;;;;;;15.45;10.05;;;;;;;;;;5093757;28;20019;-72
2020/12/20 10:07:42;;;;;;;17.67;10.38;;;;;;;;;;5111678;28;20118;-71
2020/12/20 10:10:09;;;;;;;19.45;10.82;;;;;;;;;;5094816;28;20420;-70
2020/12/20 10:12:36;;;;;;;19.10;10.45;;;;;;;;;;5094955;28;20106;-69
2020/12/20 10:15:02;;;;;;;16.17;10.95;;;;;;;;;;5093987;28;20020;-71
2020/12/20 10:17:28;;;;;;;14.02;9.35;;;;;;;;;;5111652;28;20059;-68
2020/12/20 10:19:54;;;;;;;16.50;10.77;;;;;;;;;;5111880;28;20109;-69
2020/12/20 10:22:20;;;;;;;16.45;10.65;;;;;;;;;;5111756;28;20024;-70
2020/12/20 10:24:46;;;;;;;18.23;10.68;;;;;;;;;;5093531;28;20008;-68
2020/12/20 10:27:13;;;;;;;15.68;9.43;;;;;;;;;;5111574;28;20035;-69
2020/12/20 10:29:39;;;;;;;18.60;10.20;;;;;;;;;;5093423;28;21130;-68
2020/12/20 10:32:05;;;;;;;14.77;10.05;;;;;;;;;;5111702;28;20497;-69
2020/12/20 10:34:31;;;;;;;18.98;10.77;;;;;;;;;;5093399;28;20489;-68
2020/12/20 10:36:57;;;;;;;16.88;10.80;;;;;;;;;;5111581;28;20028;-68
2020/12/20 10:39:23;;;;;;;15.27;10.60;;;;;;;;;;5093313;28;20092;-69
2020/12/20 10:41:52;;;;;;;15.55;9.95;;;;;;;;;;5111611;28;20031;-67
2020/12/20 10:44:18;;;;;;;16.30;10.27;;;;;;;;;;5111439;28;20653;-72
2020/12/20 10:46:47;;;;;;;18.63;10.73;;;;;;;;;;5092808;28;20070;-71
2020/12/20 10:49:13;;;;;;;16.10;9.98;;;;;;;;;;5093395;28;20460;-69
2020/12/20 10:51:39;;;;;;;24.90;10.98;;;;;;;;;;5115299;28;20406;-71
2020/12/20 10:54:05;;;;;;;19.42;11.35;;;;;;;;;;5096958;28;20026;-71
2020/12/20 10:56:31;;;;;;;17.60;11.30;;;;;;;;;;5096806;28;20051;-70
2020/12/20 10:58:57;;;;;;;17.35;10.63;;;;;;;;;;5115285;28;20027;-71
2020/12/20 11:01:24;;;;;;;16.85;10.93;;;;;;;;;;5115051;28;20027;-70
2020/12/20 11:03:50;;;;;;;15.00;9.90;;;;;;;;;;5096781;28;20485;-71
2020/12/20 11:06:20;;;;;;;19.15;10.10;;;;;;;;;;5114865;28;20471;-69
2020/12/20 11:08:46;;;;;;;18.08;10.68;;;;;;;;;;5096628;28;20497;-70
2020/12/20 11:11:13;;;;;;;14.20;9.88;;;;;;;;;;5096690;28;20443;-68
2020/12/20 11:13:42;;;;;;;16.13;9.90;;;;;;;;;;5114885;28;20055;-69
2020/12/20 11:16:14;;;;;;;17.83;10.23;;;;;;;;;;5114725;28;20110;-70
2020/12/20 11:18:40;;;;;;;16.40;11.15;;;;;;;;;;5096447;28;20020;-69
2020/12/20 11:21:06;;;;;;;14.57;10.05;;;;;;;;;;5096424;28;20024;-70
2020/12/20 11:23:32;;;;;;;13.25;9.73;;;;;;;;;;5114734;28;20024;-69
2020/12/20 11:25:58;;;;;;;14.95;9.85;;;;;;;;;;5114728;28;20015;-69
2020/12/20 11:28:24;;;;;;;14.65;9.98;;;;;;;;;;5114551;28;20024;-69
2020/12/20 11:30:50;;;;;;;13.65;9.30;;;;;;;;;;5114448;28;20026;-69
2020/12/20 11:33:17;;;;;;;14.98;10.45;;;;;;;;;;5114334;28;20011;-70
2020/12/20 11:35:43;;;;;;;17.02;10.25;;;;;;;;;;5114434;28;20020;-69
2020/12/20 11:38:11;;;;;;;15.75;9.68;;;;;;;;;;5096122;28;20035;-69
2020/12/20 11:40:37;;;;;;;16.90;10.63;;;;;;;;;;5114485;28;20023;-69
2020/12/20 11:43:03;;;;;;;13.90;9.65;;;;;;;;;;5114364;28;20471;-72
2020/12/20 11:45:29;;;;;;;20.05;9.85;;;;;;;;;;5115175;28;20020;-69
2020/12/20 11:47:55;;;;;;;19.10;10.15;;;;;;;;;;5095878;28;20031;-69
2020/12/20 11:50:21;;;;;;;13.75;9.02;;;;;;;;;;5107443;28;20470;-72
2020/12/20 11:52:47;;;;;;;18.85;10.23;;;;;;;;;;5093814;28;20032;-73
2020/12/20 11:55:13;;;;;;;24.45;10.10;;;;;;;;;;5099496;28;20090;-72
2020/12/20 11:57:39;;;;;;;14.95;9.00;;;;;;;;;;5113839;28;20024;-70
2020/12/20 12:00:05;;;;;;;14.25;9.35;;;;;;;;;;5113669;28;20471;-70
2020/12/20 12:02:32;;;;;;;19.20;11.15;;;;;;;;;;5113875;28;20508;-71
2020/12/20 12:04:58;;;;;;;23.25;17.30;;;;;;;;;;5113524;28;20575;-72
2020/12/20 12:07:25;;;;;;;18.30;13.60;;;;;;;;;;5106933;28;20104;-72
2020/12/20 12:09:51;;;;;;;25.67;13.10;;;;;;;;;;5093309;28;20024;-71
2020/12/20 12:12:17;;;;;;;17.25;12.73;;;;;;;;;;5093266;28;20024;-69
2020/12/20 12:14:43;;;;;;;25.60;13.38;;;;;;;;;;5074953;28;20020;-69
2020/12/20 12:17:09;;;;;;;30.17;14.10;;;;;;;;;;5093005;28;20035;-70
2020/12/20 12:19:35;;;;;;;17.30;12.02;;;;;;;;;;5074798;28;20020;-71
2020/12/20 12:22:01;;;;;;;25.75;12.02;;;;;;;;;;5092730;28;20020;-72
2020/12/20 12:24:27;;;;;;;24.15;12.25;;;;;;;;;;5092789;28;20063;-73
2020/12/20 12:26:53;;;;;;;19.30;11.63;;;;;;;;;;5074441;28;20051;-73
2020/12/20 12:29:19;;;;;;;24.65;11.68;;;;;;;;;;5074501;28;20062;-74
2020/12/20 12:31:46;;;;;;;19.80;11.20;;;;;;;;;;5092694;28;20099;-72
2020/12/20 12:34:12;;;;;;;18.13;11.13;;;;;;;;;;5092729;28;20471;-72
2020/12/20 12:36:38;;;;;;;16.77;11.32;;;;;;;;;;5092648;28;20486;-75
2020/12/20 12:39:06;;;;;;;21.88;11.52;;;;;;;;;;5092500;28;20070;-76
2020/12/20 12:41:32;;;;;;;17.40;11.77;;;;;;;;;;5074366;28;20017;-75
2020/12/20 12:43:58;;;;;;;16.95;10.43;;;;;;;;;;5080680;28;20016;-76
2020/12/20 12:46:24;;;;;;;18.00;11.18;;;;;;;;;;5112565;28;20490;-76
2020/12/20 12:48:50;;;;;;;14.70;10.23;;;;;;;;;;5094576;28;20024;-74
2020/12/20 12:51:20;;;;;;;20.35;11.80;;;;;;;;;;5112973;28;20023;-76
2020/12/20 12:53:47;;;;;;;18.58;10.73;;;;;;;;;;5094557;28;20039;-72
2020/12/20 12:56:14;;;;;;;16.83;10.20;;;;;;;;;;5112676;28;20462;-70
2020/12/20 12:58:41;;;;;;;15.05;9.88;;;;;;;;;;5112595;28;20024;-72
2020/12/20 13:01:07;;;;;;;16.35;10.32;;;;;;;;;;5112474;28;20094;-70
2020/12/20 13:03:33;;;;;;;17.23;11.20;;;;;;;;;;5112607;28;20065;-70
2020/12/20 13:05:59;;;;;;;16.27;10.70;;;;;;;;;;5112670;28;20516;-70
2020/12/20 13:08:25;;;;;;;15.70;10.60;;;;;;;;;;5094244;28;20036;-71
2020/12/20 13:10:51;;;;;;;16.15;10.05;;;;;;;;;;5112432;28;20098;-70
2020/12/20 13:13:17;;;;;;;17.17;10.00;;;;;;;;;;5111658;28;20023;-69
2020/12/20 13:15:43;;;;;;;14.60;9.57;;;;;;;;;;5094063;28;20023;-70
2020/12/20 13:18:09;;;;;;;14.77;10.00;;;;;;;;;;5112255;28;20470;-72
2020/12/20 13:20:35;;;;;;;17.42;10.57;;;;;;;;;;5112099;28;20375;-72
2020/12/20 13:23:02;;;;;;;14.98;10.02;;;;;;;;;;5111876;28;20429;-76
2020/12/20 13:25:33;;;;;;;14.05;9.27;;;;;;;;;;5112304;28;20512;-75
2020/12/20 13:27:59;;;;;;;15.48;9.75;;;;;;;;;;5112251;28;20471;-74
2020/12/20 13:30:25;;;;;;;14.27;9.05;;;;;;;;;;5093872;28;20384;-71
2020/12/20 13:32:51;;;;;;;16.40;9.05;;;;;;;;;;5111999;28;20023;-71
2020/12/20 13:35:17;;;;;;;14.45;9.38;;;;;;;;;;5093806;28;20024;-73
2020/12/20 13:37:43;;;;;;;14.80;9.38;;;;;;;;;;5093712;28;20054;-74
2020/12/20 13:40:09;;;;;;;16.75;10.13;;;;;;;;;;5112003;28;20015;-73
2020/12/20 13:42:35;;;;;;;15.02;9.38;;;;;;;;;;5111977;28;20112;-73
2020/12/20 13:45:01;;;;;;;15.02;9.15;;;;;;;;;;5111881;28;20159;-74
2020/12/20 13:47:27;;;;;;;16.20;10.00;;;;;;;;;;5093381;28;20057;-73
2020/12/20 13:49:53;;;;;;;16.75;10.20;;;;;;;;;;5093723;28;20346;-75
2020/12/20 13:52:20;;;;;;;15.10;9.60;;;;;;;;;;5111934;28;20023;-74
2020/12/20 13:54:47;;;;;;;14.98;9.73;;;;;;;;;;5093549;28;20038;-74
2020/12/20 13:57:14;;;;;;;13.98;9.20;;;;;;;;;;5093574;28;20019;-75
2020/12/20 13:59:40;;;;;;;14.35;9.30;;;;;;;;;;5111869;28;20011;-75
2020/12/20 14:02:06;;;;;;;14.18;9.32;;;;;;;;;;5111760;28;20059;-74
2020/12/20 14:04:32;;;;;;;14.20;9.38;;;;;;;;;;5111550;28;20386;-75
2020/12/20 14:06:58;;;;;;;15.60;8.73;;;;;;;;;;5109153;28;20088;-75
2020/12/20 14:09:24;;;;;;;13.38;9.27;;;;;;;;;;5091405;28;20032;-77
2020/12/20 14:11:51;;;;;;;15.30;9.70;;;;;;;;;;5091571;28;20036;-74
2020/12/20 14:14:18;;;;;;;14.50;8.73;;;;;;;;;;5073240;28;20025;-72
2020/12/20 14:16:51;;;;;;;15.43;9.60;;;;;;;;;;5073345;28;20605;-75
2020/12/20 14:19:17;;;;;;;14.90;9.40;;;;;;;;;;5091246;28;20028;-71
2020/12/20 14:21:46;;;;;;;13.40;9.23;;;;;;;;;;5072968;28;20399;-73
2020/12/20 14:24:12;;;;;;;14.15;9.15;;;;;;;;;;5092999;28;20016;-73